Savannah, Ohio
Current Conditions -  °F | °C
As of 5:52 PM on Friday 19 Dec 2014 (Local Time) from KMFD Reporting Station
Overcast Overcast  
Wind Chill: 28°   Ceiling: 1400
Heat Index: 28°   Visibility: 10mi
Dew Point: 22°   Wind: 3mph
Humidity: 78%   Direction: NA
Pressure: 30.25"   Gusts: NA
Location:  40.97°N, 82.37°W
Report Text: KMFD 192252Z VRB03KT 10SM OVC014 M02/M06 A3025 RMK AO2 SLP260 T10221056
Loading
Personal Weather Stations






























Interactive Weather Map New forecast layout! Learn more

10-Day Weather Forecast

Advertisements
Track Severe Weather on mobile